Terminal Aerodrome Forecast
Issued by NWS

Home | Current Version | Previous Version | Text Only | Print | Product List | Glossary On
Versions: 1 2 3 4 5 6 7 8 9 10 11 12 13 14 15 16 17 18 19 20 21 22 23 24 25 26 27
034
FTUS41 KOKX 252337
TAFSWF
TAF
KSWF 252337Z 2600/2706 26008KT P6SM FEW070
     FM260100 27007KT P6SM VCSH SCT070
     FM260600 VRB03KT P6SM VCSH SCT050
     FM260700 VRB03KT P6SM SCT050
     FM261500 28007KT P6SM FEW050
     FM270300 VRB03KT P6SM SCT050
      AMD NOT SKED=

USA.gov is the U.S. government's official web portal to all federal, state and local government web resources and services.